Time;durP1;ratioP1;P1;durP2;ratioP2;P2;SDS_P1;SDS_P2;PMS_P1;PMS_P2;Temp;Humidity;BMP_temperature;BMP_pressure;BME280_temperature;BME280_humidity;BME280_pressure;Samples;Min_cycle;Max_cycle;Signal;HPM_P1;HPM_P2
2024/03/24 00:01:34;;;;;;;10.60;8.00;;;;;;;26.00;18.24;99702.20;107165;1263;68333;-89
2024/03/24 00:04:00;;;;;;;8.80;7.80;;;;;;;25.99;18.09;99704.66;107144;1263;68410;-89
2024/03/24 00:06:25;;;;;;;11.10;8.10;;;;;;;25.99;18.18;99702.05;107051;1269;68376;-89
2024/03/24 00:08:54;;;;;;;8.90;7.90;;;;;;;25.99;18.14;99697.94;107048;1263;68246;-89
2024/03/24 00:11:28;;;;;;;8.40;7.20;;;;;;;25.99;17.93;99699.34;107108;1268;68302;-95
2024/03/24 00:13:53;;;;;;;9.80;7.70;;;;;;;25.98;18.03;99695.59;106937;1262;72474;-89
2024/03/24 00:16:19;;;;;;;8.70;7.50;;;;;;;25.98;18.31;99695.90;107070;1268;68484;-89
2024/03/24 00:18:44;;;;;;;9.90;8.20;;;;;;;25.98;18.17;99692.91;107159;1264;68356;-89
2024/03/24 00:21:10;;;;;;;8.40;7.50;;;;;;;25.97;17.98;99688.14;107104;1265;68452;-89
2024/03/24 00:23:37;;;;;;;8.40;7.30;;;;;;;25.96;18.20;99685.69;107148;1268;68320;-89
2024/03/24 00:26:03;;;;;;;9.40;7.50;;;;;;;25.96;17.93;99683.41;106899;1262;68320;-89
2024/03/24 00:28:28;;;;;;;9.40;7.20;;;;;;;25.96;18.10;99677.44;107107;1262;68363;-89
2024/03/24 00:30:54;;;;;;;7.90;6.90;;;;;;;25.96;18.13;99676.31;108065;1264;68343;-88
2024/03/24 00:33:20;;;;;;;8.90;7.10;;;;;;;25.96;18.37;99672.60;107381;1262;66128;-88
2024/03/24 00:35:45;;;;;;;9.10;6.50;;;;;;;25.95;17.96;99664.34;107382;1263;68017;-88
2024/03/24 00:40:55;;;;;;;8.30;7.10;;;;;;;25.95;18.07;99658.28;108226;1265;68332;-88
2024/03/24 00:43:21;;;;;;;8.50;7.10;;;;;;;25.96;18.01;99652.08;107545;1266;68470;-88
2024/03/24 00:45:48;;;;;;;9.90;7.20;;;;;;;25.96;18.04;99654.09;107738;1265;66675;-88
2024/03/24 00:48:14;;;;;;;8.10;7.20;;;;;;;25.96;18.04;99651.09;107152;1269;68268;-88
2024/03/24 00:50:39;;;;;;;9.00;7.60;;;;;;;25.97;18.06;99649.94;107099;1269;68410;-88
2024/03/24 00:55:51;;;;;;;7.70;6.40;;;;;;;25.96;18.17;99646.52;107773;1263;67374;-88
2024/03/24 00:58:17;;;;;;;10.90;7.20;;;;;;;25.95;17.94;99644.38;108134;1265;66890;-88
2024/03/24 01:00:43;;;;;;;9.20;7.50;;;;;;;25.96;17.97;99644.41;108067;1262;68416;-88
2024/03/24 01:03:09;;;;;;;9.40;7.60;;;;;;;25.96;17.93;99645.13;107086;1262;68357;-88
2024/03/24 01:05:34;;;;;;;8.60;7.30;;;;;;;25.96;18.13;99641.61;107121;1262;68387;-87
2024/03/24 01:08:00;;;;;;;9.20;7.20;;;;;;;25.97;17.93;99638.10;106824;1262;68436;-88
2024/03/24 01:10:25;;;;;;;9.30;7.30;;;;;;;25.96;18.22;99638.79;107125;1262;68869;-88
2024/03/24 01:12:51;;;;;;;10.20;7.40;;;;;;;25.96;18.20;99635.64;107249;1262;69202;-88
2024/03/24 01:15:17;;;;;;;8.20;7.30;;;;;;;25.96;18.08;99634.63;107119;1262;66858;-88
2024/03/24 01:20:40;;;;;;;8.20;7.20;;;;;;;25.94;18.08;99637.34;107210;1265;72696;-88
2024/03/24 01:23:13;;;;;;;9.90;7.80;;;;;;;25.95;17.99;99636.66;106967;1265;68412;-93
2024/03/24 01:25:39;;;;;;;8.60;7.60;;;;;;;25.94;18.15;99641.27;106739;1266;68316;-88
2024/03/24 01:28:05;;;;;;;9.10;7.50;;;;;;;25.93;18.18;99640.36;107153;1265;68894;-88
2024/03/24 01:30:30;;;;;;;9.80;7.60;;;;;;;25.94;18.05;99638.44;107102;1265;68475;-88
2024/03/24 01:32:56;;;;;;;9.80;7.80;;;;;;;25.94;18.00;99635.75;106814;1266;68495;-88
2024/03/24 01:35:21;;;;;;;10.30;7.90;;;;;;;25.93;18.03;99632.55;107024;1269;66726;-87
2024/03/24 01:37:47;;;;;;;9.20;7.60;;;;;;;25.93;18.15;99629.40;106755;1269;68451;-88
2024/03/24 01:40:12;;;;;;;8.40;7.50;;;;;;;25.93;18.04;99624.26;106876;1265;68461;-88
2024/03/24 01:42:38;;;;;;;10.60;8.20;;;;;;;25.92;18.15;99619.98;106964;1265;68493;-88
2024/03/24 01:45:04;;;;;;;10.10;7.80;;;;;;;25.92;18.01;99619.39;106809;1265;68452;-88
2024/03/24 01:47:30;;;;;;;10.90;8.00;;;;;;;25.91;17.98;99618.48;106719;1267;68859;-88
2024/03/24 01:49:56;;;;;;;12.50;7.90;;;;;;;25.91;18.09;99613.76;106636;1265;68280;-89
2024/03/24 01:52:22;;;;;;;10.30;7.80;;;;;;;25.91;18.08;99614.73;106688;1265;68363;-88
2024/03/24 01:54:48;;;;;;;10.60;7.70;;;;;;;25.91;18.15;99615.48;106747;1266;68389;-88
2024/03/24 01:57:13;;;;;;;11.50;8.00;;;;;;;25.90;18.24;99614.55;106741;1268;68425;-88
2024/03/24 01:59:39;;;;;;;12.80;7.60;;;;;;;25.90;18.23;99613.11;106815;1266;68434;-88
2024/03/24 02:02:04;;;;;;;9.90;7.30;;;;;;;25.89;18.30;99617.72;106839;1266;68545;-88
2024/03/24 02:04:30;;;;;;;10.40;8.00;;;;;;;25.88;17.97;99618.07;106624;1270;68350;-88
2024/03/24 02:06:56;;;;;;;12.50;8.00;;;;;;;25.89;18.02;99619.55;106645;1265;68404;-88
2024/03/24 02:09:21;;;;;;;11.00;8.10;;;;;;;25.88;18.22;99612.92;106901;1265;68337;-88
2024/03/24 02:11:47;;;;;;;13.30;9.10;;;;;;;25.88;18.28;99614.17;106978;1265;67925;-88
2024/03/24 02:14:12;;;;;;;11.70;9.60;;;;;;;25.87;18.44;99610.59;106848;1265;68792;-88
2024/03/24 02:16:38;;;;;;;11.90;9.90;;;;;;;25.88;18.49;99612.60;106769;1265;65974;-88
2024/03/24 02:19:03;;;;;;;17.40;11.50;;;;;;;25.87;18.49;99611.89;106796;1269;68465;-87
2024/03/24 02:21:29;;;;;;;15.70;11.50;;;;;;;25.87;18.77;99605.34;107008;1265;68531;-88
2024/03/24 02:23:55;;;;;;;14.70;11.90;;;;;;;25.86;18.61;99600.46;106870;1267;68514;-88
2024/03/24 02:26:20;;;;;;;15.10;12.00;;;;;;;25.87;19.00;99594.80;106866;1270;68467;-88
2024/03/24 02:28:54;;;;;;;16.20;12.50;;;;;;;25.87;18.88;99592.67;106721;1265;68481;-90
2024/03/24 02:31:20;;;;;;;16.80;12.40;;;;;;;25.86;18.88;99589.76;108021;1265;66353;-88
2024/03/24 02:33:45;;;;;;;15.80;12.20;;;;;;;25.86;19.06;99579.90;107792;1265;67129;-88
2024/03/24 02:36:11;;;;;;;18.50;12.10;;;;;;;25.87;18.99;99585.45;107235;1265;68336;-88
2024/03/24 02:38:36;;;;;;;16.90;12.30;;;;;;;25.86;19.24;99587.54;106965;1265;68442;-88
2024/03/24 02:41:02;;;;;;;20.80;13.30;;;;;;;25.87;19.04;99588.03;107050;1265;68387;-88
2024/03/24 02:43:27;;;;;;;14.90;12.00;;;;;;;25.87;19.08;99591.84;106730;1269;68462;-88
2024/03/24 02:45:56;;;;;;;15.80;11.90;;;;;;;25.87;19.01;99583.03;107024;1265;68415;-87
2024/03/24 02:48:22;;;;;;;14.30;11.50;;;;;;;25.86;19.13;99578.73;106967;1265;68294;-88
2024/03/24 02:50:47;;;;;;;17.50;12.60;;;;;;;25.86;18.96;99575.34;106858;1265;68365;-88
2024/03/24 02:53:13;;;;;;;15.10;12.60;;;;;;;25.86;19.09;99570.23;107047;1265;68325;-88
2024/03/24 02:55:52;;;;;;;16.50;12.50;;;;;;;25.86;19.35;99561.84;106813;1265;68427;-90
2024/03/24 02:58:18;;;;;;;18.90;12.60;;;;;;;25.85;19.13;99552.44;106708;1266;68368;-88
2024/03/24 03:00:43;;;;;;;15.70;12.40;;;;;;;25.85;19.06;99550.16;106798;1270;68475;-88
2024/03/24 03:03:09;;;;;;;17.10;12.80;;;;;;;25.85;19.19;99545.17;106837;1270;68440;-88
2024/03/24 03:05:35;;;;;;;16.00;12.30;;;;;;;25.84;19.30;99545.70;106800;1265;68457;-88
2024/03/24 03:08:02;;;;;;;15.10;12.60;;;;;;;25.84;19.12;99542.00;107066;1265;68433;-88
2024/03/24 03:10:32;;;;;;;20.10;12.80;;;;;;;25.84;19.11;99538.71;106704;1265;68551;-88
2024/03/24 03:12:58;;;;;;;13.50;11.60;;;;;;;25.84;19.30;99536.41;107355;1264;68429;-87
2024/03/24 03:15:26;;;;;;;16.70;12.60;;;;;;;25.84;19.43;99537.02;107644;1263;68892;-87
2024/03/24 03:17:52;;;;;;;17.90;12.90;;;;;;;25.84;19.41;99536.14;107262;1263;72515;-87
2024/03/24 03:20:18;;;;;;;17.30;12.40;;;;;;;25.84;19.19;99546.50;107009;1262;68322;-87
2024/03/24 03:22:51;;;;;;;15.70;12.60;;;;;;;25.84;19.41;99555.56;107072;1268;68654;-91
2024/03/24 03:25:16;;;;;;;15.40;12.70;;;;;;;25.83;19.38;99557.39;106938;1262;68273;-87
2024/03/24 03:27:43;;;;;;;17.50;13.00;;;;;;;25.84;19.40;99555.72;107085;1263;68521;-87
2024/03/24 03:30:09;;;;;;;17.60;13.20;;;;;;;25.83;19.31;99557.08;107178;1268;68250;-88
2024/03/24 03:32:35;;;;;;;17.80;12.70;;;;;;;25.84;19.19;99555.86;107745;1262;68379;-87
2024/03/24 03:35:01;;;;;;;18.70;13.20;;;;;;;25.84;19.33;99551.45;107157;1264;66386;-87
2024/03/24 03:37:26;;;;;;;20.40;12.50;;;;;;;25.84;19.39;99548.49;106876;1264;68469;-87
2024/03/24 03:39:52;;;;;;;16.30;13.00;;;;;;;25.84;19.03;99542.83;107043;1263;68814;-87
2024/03/24 03:42:18;;;;;;;18.80;12.90;;;;;;;25.84;19.10;99545.39;107267;1262;66342;-88
2024/03/24 03:44:46;;;;;;;19.30;13.10;;;;;;;25.84;19.21;99550.73;107114;1262;68439;-88
2024/03/24 03:47:14;;;;;;;18.50;12.70;;;;;;;25.83;19.20;99556.36;107038;1262;68309;-88
2024/03/24 03:49:40;;;;;;;18.10;12.60;;;;;;;25.83;19.21;99558.33;107135;1262;68208;-92
2024/03/24 03:52:06;;;;;;;16.10;12.70;;;;;;;25.83;19.39;99563.58;106926;1262;66348;-87
2024/03/24 03:54:31;;;;;;;17.10;12.70;;;;;;;25.83;19.21;99564.40;107044;1269;68306;-88
2024/03/24 03:56:57;;;;;;;20.30;13.40;;;;;;;25.83;19.29;99558.63;107108;1265;68532;-88
2024/03/24 03:59:23;;;;;;;18.40;13.40;;;;;;;25.83;19.36;99556.77;107219;1262;66421;-88
2024/03/24 04:01:48;;;;;;;20.10;13.70;;;;;;;25.83;19.09;99554.48;107135;1262;72614;-88
2024/03/24 04:04:14;;;;;;;16.30;12.70;;;;;;;25.83;19.28;99555.80;106879;1262;68383;-87
2024/03/24 04:06:39;;;;;;;18.70;13.30;;;;;;;25.83;19.12;99555.38;106981;1262;68543;-87
2024/03/24 04:09:05;;;;;;;16.40;12.40;;;;;;;25.83;19.04;99547.98;107082;1262;69582;-87
2024/03/24 04:11:31;;;;;;;19.50;13.20;;;;;;;25.83;19.02;99542.58;107076;1262;68545;-88
2024/03/24 04:13:56;;;;;;;17.30;13.10;;;;;;;25.82;19.24;99534.90;107127;1262;68300;-88
2024/03/24 04:19:08;;;;;;;18.10;12.40;;;;;;;25.81;19.12;99521.75;107748;1263;68438;-88
2024/03/24 04:21:34;;;;;;;16.80;12.60;;;;;;;25.81;19.03;99521.48;107922;1262;68266;-88
2024/03/24 04:24:01;;;;;;;16.20;12.90;;;;;;;25.82;19.04;99523.10;107246;1262;68286;-88
2024/03/24 04:26:27;;;;;;;18.60;12.20;;;;;;;25.82;19.19;99526.66;107058;1262;68227;-88
2024/03/24 04:28:52;;;;;;;17.10;12.90;;;;;;;25.82;19.24;99536.30;107324;1262;68419;-87
2024/03/24 04:34:04;;;;;;;17.00;12.40;;;;;;;25.82;19.32;99549.86;107828;1265;68306;-88
2024/03/24 04:36:29;;;;;;;18.10;12.90;;;;;;;25.82;19.39;99543.39;107106;1264;68487;-88
2024/03/24 04:38:55;;;;;;;16.10;12.20;;;;;;;25.83;19.24;99533.38;107050;1263;68417;-88
2024/03/24 04:41:20;;;;;;;17.10;12.80;;;;;;;25.83;19.24;99537.35;107164;1264;68416;-88
2024/03/24 04:43:46;;;;;;;18.10;12.00;;;;;;;25.84;19.28;99543.51;107066;1267;68337;-88
2024/03/24 04:46:11;;;;;;;15.70;12.70;;;;;;;25.83;19.17;99546.58;106706;1264;72833;-88
2024/03/24 04:48:37;;;;;;;15.30;11.90;;;;;;;25.84;19.01;99547.22;107131;1266;68452;-88
2024/03/24 04:51:03;;;;;;;16.10;12.40;;;;;;;25.84;19.30;99544.13;107105;1264;68314;-88
2024/03/24 04:53:29;;;;;;;17.40;11.90;;;;;;;25.84;19.28;99543.24;107090;1269;68541;-88
2024/03/24 04:55:55;;;;;;;15.60;11.30;;;;;;;25.85;19.39;99541.33;106977;1264;68290;-88
2024/03/24 04:58:29;;;;;;;13.90;11.70;;;;;;;25.85;19.24;99545.86;107053;1266;68404;-94
2024/03/24 05:00:54;;;;;;;15.40;11.20;;;;;;;25.84;19.22;99550.52;106901;1263;68371;-88
2024/03/24 05:03:20;;;;;;;15.30;10.30;;;;;;;25.84;19.24;99553.08;107170;1264;68474;-87
2024/03/24 05:05:47;;;;;;;12.90;10.00;;;;;;;25.84;19.20;99549.48;107108;1267;68405;-88
2024/03/24 05:08:19;;;;;;;12.80;9.70;;;;;;;25.84;18.99;99548.91;107754;1262;68364;31
2024/03/24 05:10:44;;;;;;;12.20;9.40;;;;;;;25.84;19.23;99549.89;107229;1269;68884;-89
2024/03/24 05:15:57;;;;;;;8.90;7.50;;;;;;;25.84;19.34;99555.19;107749;1262;68421;-88
2024/03/24 05:18:22;;;;;;;10.20;7.80;;;;;;;25.84;19.10;99548.95;108274;1262;68391;-88
2024/03/24 05:20:48;;;;;;;9.60;7.80;;;;;;;25.85;19.17;99546.88;109151;1262;68004;-87
2024/03/24 05:23:18;;;;;;;9.20;7.10;;;;;;;25.86;19.06;99546.27;109195;1262;66368;-88
2024/03/24 05:25:50;;;;;;;11.40;7.20;;;;;;;25.87;18.96;99548.73;109204;1262;66009;-89
2024/03/24 05:28:22;;;;;;;10.40;6.70;;;;;;;25.87;19.11;99552.92;107932;1263;68271;-94
2024/03/24 05:30:52;;;;;;;11.50;7.00;;;;;;;25.88;18.98;99549.00;107001;1262;68204;-88
2024/03/24 05:33:21;;;;;;;7.50;6.70;;;;;;;25.89;19.12;99548.52;107272;1265;72391;-88
2024/03/24 05:35:46;;;;;;;8.30;6.80;;;;;;;25.89;19.04;99544.98;107762;1263;68535;-88
2024/03/24 05:38:12;;;;;;;7.20;6.50;;;;;;;25.90;18.93;99539.52;107299;1266;68386;-88
2024/03/24 05:40:40;;;;;;;7.90;6.50;;;;;;;25.90;19.10;99540.98;107592;1262;68398;-89
2024/03/24 05:45:48;;;;;;;7.80;6.10;;;;;;;25.89;18.85;99544.18;107901;1262;74238;-88
2024/03/24 05:48:14;;;;;;;7.60;6.40;;;;;;;25.90;18.68;99541.42;107907;1263;67174;-88
2024/03/24 05:50:40;;;;;;;8.00;6.10;;;;;;;25.91;18.56;99536.09;107137;1264;68389;-88
2024/03/24 05:53:05;;;;;;;6.70;6.00;;;;;;;25.91;18.61;99528.88;107347;1263;68542;-88
2024/03/24 05:55:34;;;;;;;7.40;5.90;;;;;;;25.91;18.62;99527.88;107243;1262;68396;-88
2024/03/24 06:00:46;;;;;;;6.80;5.60;;;;;;;25.91;18.52;99513.52;107741;1261;67301;-88
2024/03/24 06:03:12;;;;;;;10.80;6.10;;;;;;;25.92;18.50;99520.70;107196;1262;69390;-88
2024/03/24 06:05:38;;;;;;;8.60;5.80;;;;;;;25.91;18.70;99536.70;107213;1263;68298;-88
2024/03/24 06:08:10;;;;;;;7.60;5.90;;;;;;;25.91;18.69;99532.73;107216;1263;68467;-87
2024/03/24 06:10:37;;;;;;;7.70;5.70;;;;;;;25.91;18.59;99524.64;107234;1262;68560;-88
2024/03/24 06:13:09;;;;;;;7.00;5.60;;;;;;;25.91;18.58;99538.81;107106;1265;68769;-91
2024/03/24 06:15:35;;;;;;;10.00;6.10;;;;;;;25.90;18.59;99544.70;107094;1263;68397;-87
2024/03/24 06:18:04;;;;;;;7.20;5.90;;;;;;;25.91;18.41;99536.51;107247;1263;68369;-88
2024/03/24 06:20:38;;;;;;;7.90;5.70;;;;;;;25.91;18.44;99520.52;107231;1263;72558;-87
2024/03/24 06:23:04;;;;;;;6.70;5.30;;;;;;;25.91;18.73;99517.49;107783;1263;68348;-88
2024/03/24 06:25:30;;;;;;;6.60;5.30;;;;;;;25.91;18.51;99517.13;107399;1261;68349;-88
2024/03/24 06:30:40;;;;;;;8.50;6.10;;;;;;;25.92;18.58;99525.29;107765;1263;68214;-88
2024/03/24 06:33:05;;;;;;;6.80;6.10;;;;;;;25.92;18.63;99519.80;107236;1262;72733;-88
2024/03/24 06:35:31;;;;;;;8.30;6.10;;;;;;;25.94;18.62;99527.14;108364;1263;68377;-88
2024/03/24 06:38:05;;;;;;;7.10;5.50;;;;;;;25.94;18.62;99546.17;108390;1260;68407;31
2024/03/24 06:49:24;;;;;;;6.70;5.30;;;;;;;25.95;18.48;99532.84;107158;1264;68429;-88
2024/03/24 06:54:34;;;;;;;6.50;5.40;;;;;;;25.96;18.69;99530.80;107755;1262;68481;-87
2024/03/24 06:57:00;;;;;;;7.40;5.60;;;;;;;25.96;18.42;99529.66;107098;1268;68429;-87
2024/03/24 06:59:25;;;;;;;9.90;5.50;;;;;;;25.97;18.39;99525.59;107163;1262;68528;-87
2024/03/24 07:01:51;;;;;;;7.10;5.50;;;;;;;25.97;18.50;99530.38;107104;1262;65790;-87
2024/03/24 07:04:16;;;;;;;7.60;5.40;;;;;;;25.97;18.44;99530.72;107276;1262;68942;-88
2024/03/24 07:06:42;;;;;;;6.30;5.40;;;;;;;25.97;18.66;99530.58;107013;1262;68755;-88
2024/03/24 07:09:07;;;;;;;7.20;5.50;;;;;;;25.98;18.69;99537.98;107134;1265;68505;-87
2024/03/24 07:11:33;;;;;;;6.40;5.30;;;;;;;25.97;18.68;99528.60;107141;1263;68407;-87
2024/03/24 07:13:58;;;;;;;6.70;5.20;;;;;;;25.97;18.53;99527.48;107108;1262;68487;-88
2024/03/24 07:16:25;;;;;;;6.60;5.30;;;;;;;25.97;18.51;99522.78;107283;1263;68411;-88
2024/03/24 07:18:54;;;;;;;5.60;5.00;;;;;;;25.97;18.65;99522.45;107456;1262;303227;-91
2024/03/24 07:21:20;;;;;;;6.20;5.50;;;;;;;25.98;18.42;99523.95;107036;1263;68343;-87
2024/03/24 07:23:45;;;;;;;7.40;5.60;;;;;;;25.98;18.53;99520.58;107110;1268;68551;-87
2024/03/24 07:26:11;;;;;;;6.60;5.20;;;;;;;25.99;18.68;99518.63;107403;1262;68573;-88
2024/03/24 07:28:37;;;;;;;8.20;5.80;;;;;;;25.99;18.59;99522.77;107226;1262;68395;-88
2024/03/24 07:31:02;;;;;;;9.70;6.10;;;;;;;26.00;18.55;99526.97;107388;1262;68830;-88
2024/03/24 07:33:28;;;;;;;7.70;5.50;;;;;;;26.00;18.58;99530.41;107048;1267;68442;-88
2024/03/24 07:35:53;;;;;;;8.50;5.60;;;;;;;26.01;18.54;99538.64;107268;1263;68536;-88
2024/03/24 07:38:19;;;;;;;6.50;5.80;;;;;;;26.01;18.68;99549.73;107255;1262;66160;-88
2024/03/24 07:40:45;;;;;;;8.40;6.40;;;;;;;26.02;18.68;99550.50;107276;1264;66545;-88
2024/03/24 07:43:11;;;;;;;8.80;6.10;;;;;;;26.02;18.54;99548.54;107192;1264;68481;-88
2024/03/24 07:48:18;;;;;;;8.60;6.00;;;;;;;26.03;18.97;99539.13;107018;1264;68422;-88
2024/03/24 07:50:44;;;;;;;9.00;6.20;;;;;;;26.05;18.60;99537.77;106942;1266;68408;-88
2024/03/24 07:53:09;;;;;;;7.60;6.10;;;;;;;26.08;18.77;99536.17;106740;1265;68530;-88
2024/03/24 07:55:35;;;;;;;7.20;6.00;;;;;;;26.09;18.61;99538.17;107115;1269;68353;-88
2024/03/24 07:58:01;;;;;;;7.80;6.30;;;;;;;26.10;18.91;99539.38;107207;1265;68450;-88
2024/03/24 08:00:26;;;;;;;9.60;6.40;;;;;;;26.13;18.85;99532.25;106715;1265;72586;-88
2024/03/24 08:02:52;;;;;;;9.30;6.20;;;;;;;26.14;19.04;99529.33;107050;1265;68416;-88
2024/03/24 08:05:17;;;;;;;10.00;6.70;;;;;;;26.14;18.71;99526.84;106796;1265;68434;-88
2024/03/24 08:07:43;;;;;;;9.60;6.60;;;;;;;26.15;18.64;99528.20;107052;1265;68495;-88
2024/03/24 08:10:12;;;;;;;8.00;6.30;;;;;;;26.16;18.89;99526.73;107255;1265;68522;-88
2024/03/24 08:12:43;;;;;;;9.80;6.40;;;;;;;26.17;18.92;99525.30;106924;1264;68248;-92
2024/03/24 08:15:08;;;;;;;8.30;6.70;;;;;;;26.17;18.96;99522.19;106802;1265;66356;-89
2024/03/24 08:17:34;;;;;;;7.30;6.40;;;;;;;26.19;18.96;99517.08;106934;1266;68498;-89
2024/03/24 08:20:00;;;;;;;7.70;6.40;;;;;;;26.21;18.95;99519.52;107020;1270;68476;-89
2024/03/24 08:22:25;;;;;;;7.10;6.30;;;;;;;26.23;19.00;99526.81;108245;1265;68488;-87
2024/03/24 08:24:51;;;;;;;9.70;6.10;;;;;;;26.25;18.91;99523.63;107110;1266;68373;-88
2024/03/24 08:27:17;;;;;;;9.20;6.40;;;;;;;26.29;19.09;99522.06;106876;1266;68443;-88
2024/03/24 08:29:43;;;;;;;8.60;6.10;;;;;;;26.31;19.18;99518.70;106888;1265;68354;-87
2024/03/24 08:32:08;;;;;;;8.30;6.10;;;;;;;26.33;19.13;99512.48;107053;1265;66841;-88
2024/03/24 08:34:34;;;;;;;12.20;6.20;;;;;;;26.36;18.95;99518.25;107175;1265;68431;-88
2024/03/24 08:36:59;;;;;;;8.60;5.90;;;;;;;26.37;18.82;99512.01;107028;1268;68394;-88
2024/03/24 08:42:14;;;;;;;6.70;6.00;;;;;;;26.40;18.96;99507.27;107842;1261;72303;-89
2024/03/24 08:44:40;;;;;;;9.60;6.40;;;;;;;26.42;19.00;99506.02;107143;1264;68429;-89
2024/03/24 08:47:05;;;;;;;9.40;6.60;;;;;;;26.44;18.90;99504.80;107328;1264;68423;-89
2024/03/24 08:49:31;;;;;;;7.80;6.00;;;;;;;26.46;18.96;99502.41;107373;1268;68447;-89
2024/03/24 08:51:56;;;;;;;10.90;6.10;;;;;;;26.48;19.10;99498.63;107222;1264;68260;-89
2024/03/24 08:57:07;;;;;;;9.80;6.20;;;;;;;26.51;18.69;99494.36;108058;1262;68567;-88
2024/03/24 08:59:33;;;;;;;6.50;5.80;;;;;;;26.54;18.98;99493.02;107163;1262;68336;-88
2024/03/24 09:01:58;;;;;;;8.00;6.00;;;;;;;26.55;19.04;99492.45;107339;1263;66217;-88
2024/03/24 09:04:24;;;;;;;8.40;5.80;;;;;;;26.57;18.67;99483.63;107223;1262;68473;-88
2024/03/24 09:10:12;;;;;;;7.30;6.30;;;;;;;26.59;18.89;99476.10;107120;1264;68221;-88
2024/03/24 09:12:38;;;;;;;8.20;6.60;;;;;;;26.61;18.77;99473.02;107219;1263;68427;-88
2024/03/24 09:15:04;;;;;;;7.40;6.20;;;;;;;26.60;18.78;99466.05;106978;1264;68437;-88
2024/03/24 09:17:30;;;;;;;6.80;5.90;;;;;;;26.63;18.89;99466.08;107277;1264;68447;-88
2024/03/24 09:19:56;;;;;;;8.20;6.40;;;;;;;26.63;18.87;99464.42;107259;1264;68312;-88
2024/03/24 09:22:21;;;;;;;8.10;6.10;;;;;;;26.65;18.82;99462.60;107274;1264;68399;-88
2024/03/24 09:24:47;;;;;;;8.40;6.00;;;;;;;26.65;19.05;99464.17;107127;1264;72559;-88
2024/03/24 09:27:12;;;;;;;7.10;6.10;;;;;;;26.66;18.93;99461.75;106903;1265;68513;-88
2024/03/24 09:29:51;;;;;;;7.20;6.20;;;;;;;26.67;18.84;99457.13;107001;1265;66423;-87
2024/03/24 09:32:17;;;;;;;7.00;6.30;;;;;;;26.68;18.93;99458.36;106946;1265;68310;-88
2024/03/24 09:34:42;;;;;;;8.20;6.10;;;;;;;26.69;18.90;99458.89;107085;1265;68538;-87
2024/03/24 09:37:08;;;;;;;8.10;6.10;;;;;;;26.70;18.96;99447.88;107174;1271;68290;-88
2024/03/24 09:39:33;;;;;;;8.20;6.20;;;;;;;26.70;18.96;99442.34;107117;1264;68928;-88
2024/03/24 09:41:59;;;;;;;8.40;5.90;;;;;;;26.72;18.79;99443.92;106875;1265;68342;-88
2024/03/24 09:44:25;;;;;;;8.00;6.10;;;;;;;26.74;19.11;99437.55;107208;1265;68275;-88
2024/03/24 09:46:51;;;;;;;8.90;6.30;;;;;;;26.75;18.93;99437.54;107041;1265;68453;-87
2024/03/24 09:49:16;;;;;;;8.00;6.60;;;;;;;26.77;18.80;99438.36;107042;1266;68365;-88
2024/03/24 09:51:43;;;;;;;8.80;6.50;;;;;;;26.77;19.05;99433.30;107134;1264;68621;-88
2024/03/24 09:56:51;;;;;;;10.50;6.60;;;;;;;26.80;18.81;99424.05;107063;1264;68308;-88
2024/03/24 09:59:17;;;;;;;8.30;6.40;;;;;;;26.82;18.94;99419.81;107475;1268;68480;-88
2024/03/24 10:01:45;;;;;;;8.10;6.50;;;;;;;26.83;18.92;99418.95;107126;1269;68506;-88
2024/03/24 10:04:11;;;;;;;9.20;6.10;;;;;;;26.84;19.07;99415.48;106869;1264;68376;-88
2024/03/24 10:06:37;;;;;;;10.10;6.50;;;;;;;26.87;18.94;99410.02;106989;1269;68321;-88
2024/03/24 10:09:05;;;;;;;8.30;6.40;;;;;;;26.88;19.17;99410.98;106997;1270;66608;-87
2024/03/24 10:11:52;;;;;;;9.00;6.60;;;;;;;26.90;19.17;99407.84;107127;1269;73460;-88
2024/03/24 10:14:24;;;;;;;7.70;6.60;;;;;;;26.91;19.18;99402.95;107226;1269;68388;-88
2024/03/24 10:16:50;;;;;;;7.90;6.60;;;;;;;26.92;19.07;99398.81;107510;1264;66333;-88
2024/03/24 10:19:16;;;;;;;8.60;6.80;;;;;;;26.94;19.37;99399.94;107865;1264;68337;-87
2024/03/24 10:21:41;;;;;;;9.30;7.10;;;;;;;26.96;19.26;99398.40;107235;1264;68369;-88
2024/03/24 10:24:16;;;;;;;10.90;7.30;;;;;;;26.98;19.21;99392.73;107008;1264;68366;-92
2024/03/24 10:26:41;;;;;;;10.80;7.60;;;;;;;26.99;19.36;99387.30;106973;1264;68850;-88
2024/03/24 10:29:07;;;;;;;10.00;7.80;;;;;;;27.00;19.34;99375.30;107147;1264;68334;-88
2024/03/24 10:31:33;;;;;;;10.30;7.70;;;;;;;27.00;19.39;99372.95;107276;1264;68408;-88
2024/03/24 10:33:59;;;;;;;12.50;7.90;;;;;;;27.02;19.40;99370.64;107061;1264;66918;-89
2024/03/24 10:36:24;;;;;;;10.30;7.70;;;;;;;27.03;19.26;99367.75;107012;1264;68577;-89
2024/03/24 10:38:50;;;;;;;11.20;7.60;;;;;;;27.04;19.44;99363.61;107083;1264;68462;-89
2024/03/24 10:41:18;;;;;;;9.50;7.80;;;;;;;27.05;19.47;99361.29;107260;1268;68776;-89
2024/03/24 10:43:45;;;;;;;8.80;7.60;;;;;;;27.06;19.42;99361.36;106902;1267;68264;-89
2024/03/24 10:46:11;;;;;;;9.80;8.30;;;;;;;27.07;19.66;99356.48;106996;1266;73545;-89
2024/03/24 10:48:36;;;;;;;10.60;8.00;;;;;;;27.08;19.70;99348.74;106867;1264;68931;-89
2024/03/24 10:51:11;;;;;;;9.30;8.20;;;;;;;27.09;19.57;99338.20;106725;1264;68481;-89
2024/03/24 10:53:37;;;;;;;12.60;8.20;;;;;;;27.09;19.65;99329.53;106771;1264;68328;-89
2024/03/24 10:56:03;;;;;;;10.30;7.80;;;;;;;27.10;19.58;99327.29;107680;1264;68823;-89
2024/03/24 10:58:29;;;;;;;9.10;7.80;;;;;;;27.10;19.59;99322.51;107699;1266;66419;-89
2024/03/24 11:00:55;;;;;;;10.40;8.10;;;;;;;27.11;19.72;99317.20;108355;1263;68266;-89
2024/03/24 11:03:25;;;;;;;12.60;8.30;;;;;;;27.12;19.76;99314.43;107027;1267;67652;-88
2024/03/24 11:05:59;;;;;;;10.20;7.60;;;;;;;27.13;19.84;99316.51;107056;1267;68356;-89
2024/03/24 11:08:25;;;;;;;13.20;7.10;;;;;;;27.14;20.01;99313.02;107121;1264;68517;-89
2024/03/24 11:10:53;;;;;;;10.60;7.60;;;;;;;27.14;19.90;99312.48;106929;1264;68523;-89
2024/03/24 11:13:29;;;;;;;9.50;7.60;;;;;;;27.14;20.03;99307.10;107131;1264;68310;-89
2024/03/24 11:16:14;;;;;;;9.80;7.00;;;;;;;27.14;19.98;99300.59;107004;1264;68262;-88
2024/03/24 11:18:39;;;;;;;11.90;7.10;;;;;;;27.16;20.02;99299.10;107101;1267;68385;-88
2024/03/24 11:21:07;;;;;;;9.00;6.90;;;;;;;27.16;19.89;99299.44;106955;1263;68456;-88
2024/03/24 11:23:36;;;;;;;8.60;7.00;;;;;;;27.17;19.98;99294.80;106958;1264;68390;-88
2024/03/24 11:26:02;;;;;;;10.40;6.60;;;;;;;27.18;19.87;99289.73;107195;1264;68223;-88
2024/03/24 11:28:50;;;;;;;9.80;6.80;;;;;;;27.18;19.85;99281.96;108000;1268;68274;-88
2024/03/24 11:31:20;;;;;;;8.90;6.90;;;;;;;27.19;20.00;99277.31;107709;1264;68416;-88
2024/03/24 11:34:05;;;;;;;8.60;6.70;;;;;;;27.20;20.05;99277.27;107413;1264;65773;-88
2024/03/24 11:36:34;;;;;;;14.80;6.90;;;;;;;27.20;20.21;99274.59;107475;1263;72756;-88
2024/03/24 11:48:14;;;;;;;7.20;6.20;;;;;;;27.25;20.09;99264.19;109353;1260;65739;-88
2024/03/24 11:53:31;;;;;;;10.40;6.00;;;;;;;27.30;20.04;99256.64;109046;1262;68756;-88
2024/03/24 11:56:00;;;;;;;9.50;5.80;;;;;;;27.32;20.10;99253.77;109108;1262;66121;-89
2024/03/24 11:58:26;;;;;;;7.80;5.50;;;;;;;27.33;20.01;99250.64;108836;1268;67346;-88
2024/03/24 12:00:52;;;;;;;7.50;5.50;;;;;;;27.35;19.98;99254.23;109262;1262;66095;-89
2024/03/24 12:12:22;;;;;;;6.40;4.70;;;;;;;27.42;19.90;99237.90;107794;1264;68177;-89
2024/03/24 12:14:56;;;;;;;6.00;5.10;;;;;;;27.44;19.92;99244.04;107153;1264;68434;-93
2024/03/24 12:17:22;;;;;;;8.30;5.40;;;;;;;27.46;19.92;99244.98;106963;1264;72650;-89
2024/03/24 12:19:48;;;;;;;6.40;5.00;;;;;;;27.48;19.85;99233.91;108433;1262;68366;-89
2024/03/24 12:22:13;;;;;;;7.60;5.10;;;;;;;27.49;19.95;99234.88;108413;1263;67862;-88
2024/03/24 12:24:39;;;;;;;7.20;5.00;;;;;;;27.51;19.89;99230.91;107413;1263;68337;-88
2024/03/24 12:27:04;;;;;;;9.40;5.40;;;;;;;27.52;19.84;99228.70;107349;1263;68429;-88
2024/03/24 12:29:30;;;;;;;8.10;5.20;;;;;;;27.53;19.76;99225.40;107240;1263;68411;-88